Lakefront Airport New Orleans US
ICAO: KNEW
IATA: NEW
Category: Medium
Scheduled Services: No

Elevation: 8 ft
TransAlt. 18000 ft.

Airport Communications:
NEW ORLEANS APP/DEP:123.85
ATIS:124.9
CLNC DEL:119.9
CTAF:119.9
GND:121.7
ARNG OPS:141.35
DE RIDDER RDO:122.6
TWR:119.9
UNICOM:122.95

KNEW Zoom In..

If you have problems with the map follow the link
https://www.worldairports.se/pages/airport.php?
ICAO=KNEW

Runways:

(A) RW 09 length 3114 ft width 75 ft
---- / hdg 87

(B) RW 18L length 3697 ft width 75 ft
---- / hdg 177

(C) RW 18R length 6879 ft width 150 ft
ILS 111.30 / hdg 177

(D) RW 27 length 3114 ft width 75 ft
---- / hdg 267

(E) RW 36L length 6879 ft width 150 ft
---- / hdg 357

(F) RW 36R length 3697 ft width 75 ft
---- / hdg 357

Location; KNEW
Day. 19 / Time. 18.53 Zulu
* Altimeter: 30.33
* Temperature: 13° c. 55.4°f.
* Wind from: 360° Speed 23 kn with Gusts up to 26 kn.
Dewpoint: -05° c.
Visibility: 10 Statute Miles.
Clouds: Clear (automated report).

KNEW 191853Z 36023G26KT 10SM CLR 13/M05 A3033 RMK AO2 PK WND 01029/1754 SLP264 T01281050


Wind From 360°
Speed 23 kn.

 
 
jpsmedia worldairports.se 2020   terms of use